Terminal Aerodrome Forecast
Issued by NWS Sterling, VA

Current Version | Previous Version | Graphics & Text | Print | Product List | Glossary On
Versions: 1 2 3 4 5 6 7 8 9 10 11 12 13 14 15 16 17 18 19 20 21 22 23 24
687
FTUS41 KLWX 300539
TAFDCA
TAF
KDCA 300539Z 3006/3106 20003KT P6SM SCT120
     FM301000 VRB03KT P6SM BKN100
     FM301500 16007KT 5SM SHRA VCTS OVC025CB
     FM301900 16007KT 6SM -SHRA VCTS OVC050CB
     FM310000 16006KT 5SM SHRA VCTS OVC060CB
     FM310300 15005KT 6SM -SHRA VCTS OVC060CB=

USA.gov is the U.S. government's official web portal to all federal, state and local government web resources and services.